Terminal Aerodrome Forecast
Issued by NWS

Current Version | Previous Version | Graphics & Text | Print | Product List | Glossary On
Versions: 1 2 3 4 5 6 7 8 9 10 11 12 13 14 15 16 17 18 19 20 21 22 23 24 25 26 27 28 29 30 31
000
FTUS41 KILN 232300
TAFLUK
TAF
KLUK 232338Z 2400/2424 02004KT 2SM BR OVC015
      TEMPO 2400/2404 4SM -SHRA BR OVC025
     FM240400 15005KT 5SM BR VCSH OVC020
     FM241100 14007KT 4SM -SHRA BR OVC009
     FM241400 19013G21KT P6SM VCSH OVC015
     FM241700 24018G32KT P6SM VCSH BKN025
     FM242100 25020G35KT P6SM VCSH BKN025=

USA.gov is the U.S. government's official web portal to all federal, state and local government web resources and services.